KWVI/WVI METAR and TAF weather

Enter ICAO airport designator
Station Type Date Time Source
KWVI METAR 2019/12/08 11:31 UTC NOAA

KWVI 081131Z AUTO 23010KT 1 3/4SM +RA BR BKN005 OVC012 14/13 A2998 RMK AO2 P0011 T01440133


Station Type Date Time Source
KWVI Decoded METAR 2019/12/08 11:31 UTC NOAA

WATSONVILLE MUNICIPAL AIRPORT , CA, United States (KWVI) 36-56N 121-47W 43M
Dec 08, 2019 - 06:31 AM EST / 2019.12.08 1131 UTC
Wind: from the SW (230 degrees) at 12 MPH (10 KT):0
Visibility: 1 3/4 mile(s):0
Sky conditions: overcast
Weather: heavy rain; mist
Precipitation last hour: 0.11 inches
Temperature: 57.9 F (14.4 C)
Dew Point: 55.9 F (13.3 C)
Relative Humidity: 93%
Pressure (altimeter): 29.98 in. Hg (1015 hPa)
ob: KWVI 081131Z AUTO 23010KT 1 3/4SM +RA BR BKN005 OVC012 14/13 A2998 RMK AO2 P0011 T01440133
cycle: 11

Station Type Date Time Source
KWVI TAF UTC NOAA

Error!

Example: see airport list